createdAt,value
2023-01-28T00:01:38.215Z,7.03
2023-01-28T00:04:06.944Z,7.40
2023-01-28T00:06:36.332Z,7.07
2023-01-28T00:09:06.873Z,7.22
2023-01-28T00:11:35.527Z,7.90
2023-01-28T00:14:05.605Z,7.65
2023-01-28T00:16:34.248Z,7.78
2023-01-28T00:19:03.069Z,7.03
2023-01-28T00:21:31.926Z,7.85
2023-01-28T00:24:00.396Z,8.18
2023-01-28T00:26:29.255Z,7.18
2023-01-28T00:28:57.717Z,7.95
2023-01-28T00:31:27.994Z,6.93
2023-01-28T00:33:58.303Z,6.70
2023-01-28T00:36:27.968Z,5.93
2023-01-28T00:38:59.562Z,5.75
2023-01-28T00:41:30.368Z,6.85
2023-01-28T00:44:00.365Z,6.70
2023-01-28T00:46:30.615Z,5.75
2023-01-28T00:48:59.044Z,6.68
2023-01-28T00:51:27.511Z,6.28
2023-01-28T00:53:56.027Z,5.65
2023-01-28T00:56:24.668Z,5.07
2023-01-28T00:58:53.615Z,5.20
2023-01-28T01:01:27.076Z,5.70
2023-01-28T01:04:03.389Z,6.30
2023-01-28T01:06:40.968Z,5.45
2023-01-28T01:09:12.452Z,6.45
2023-01-28T01:11:42.208Z,6.38
2023-01-28T01:14:11.392Z,5.57
2023-01-28T01:16:44.275Z,5.60
2023-01-28T01:19:12.871Z,5.53
2023-01-28T01:21:41.386Z,5.43
2023-01-28T01:24:09.927Z,5.55
2023-01-28T01:26:38.512Z,5.25
2023-01-28T01:29:07.123Z,5.55
2023-01-28T01:31:35.590Z,5.10
2023-01-28T01:34:04.304Z,5.30
2023-01-28T01:36:32.822Z,5.32
2023-01-28T01:39:01.460Z,5.70
2023-01-28T01:41:32.789Z,5.47
2023-01-28T01:44:06.549Z,5.70
2023-01-28T01:46:35.152Z,4.68
2023-01-28T01:49:29.711Z,4.90
2023-01-28T01:52:07.535Z,5.05
2023-01-28T01:54:37.885Z,5.25
2023-01-28T01:57:11.045Z,5.78
2023-01-28T01:59:42.416Z,5.03
2023-01-28T02:02:12.667Z,4.80
2023-01-28T02:04:45.301Z,4.90
2023-01-28T02:07:19.860Z,4.35
2023-01-28T02:09:48.795Z,4.95
2023-01-28T02:12:24.895Z,4.88
2023-01-28T02:15:02.224Z,4.53
2023-01-28T02:17:31.155Z,4.90
2023-01-28T02:20:05.284Z,4.65
2023-01-28T02:23:05.918Z,4.32
2023-01-28T02:26:09.885Z,5.22
2023-01-28T02:28:51.933Z,4.10
2023-01-28T02:31:35.276Z,5.10
2023-01-28T02:34:25.804Z,4.32
2023-01-28T02:37:26.388Z,4.50
2023-01-28T02:40:06.813Z,4.43
2023-01-28T02:42:38.231Z,3.92
2023-01-28T02:45:24.022Z,4.65
2023-01-28T02:47:59.566Z,5.35
2023-01-28T02:50:45.684Z,4.70
2023-01-28T02:53:47.391Z,4.63
2023-01-28T02:56:39.609Z,4.35
2023-01-28T02:59:31.859Z,5.15
2023-01-28T03:02:21.212Z,5.18
2023-01-28T03:05:07.857Z,4.45
2023-01-28T03:07:39.510Z,4.70
2023-01-28T03:10:15.785Z,4.63
2023-01-28T03:13:05.102Z,5.22
2023-01-28T03:16:00.417Z,4.75
2023-01-28T03:18:55.481Z,4.35
2023-01-28T03:21:51.926Z,5.38
2023-01-28T03:24:48.813Z,4.47
2023-01-28T03:27:57.973Z,5.05
2023-01-28T03:31:08.824Z,4.65
2023-01-28T03:34:09.646Z,7.43
2023-01-28T03:36:51.288Z,8.15
2023-01-28T03:39:45.937Z,5.00
2023-01-28T03:42:18.811Z,5.03
2023-01-28T03:45:06.107Z,5.03
2023-01-28T03:47:34.707Z,5.25
2023-01-28T03:50:07.434Z,5.03
2023-01-28T03:53:15.964Z,4.88
2023-01-28T03:55:51.458Z,5.20
2023-01-28T03:58:21.608Z,5.30
2023-01-28T04:00:50.182Z,5.25
2023-01-28T04:03:21.119Z,3.97
2023-01-28T04:06:03.415Z,5.00
2023-01-28T04:08:55.657Z,4.35
2023-01-28T04:11:54.258Z,4.60
2023-01-28T04:14:34.921Z,5.27
2023-01-28T04:17:11.372Z,4.88
2023-01-28T04:19:41.040Z,5.50
2023-01-28T04:22:12.798Z,4.70
2023-01-28T04:24:43.252Z,4.68
2023-01-28T04:27:12.457Z,5.13
2023-01-28T04:29:42.078Z,5.50
2023-01-28T04:32:36.915Z,5.90
2023-01-28T04:35:11.398Z,5.72
2023-01-28T04:40:42.376Z,4.28
2023-01-28T04:43:14.053Z,5.00
2023-01-28T04:45:55.414Z,4.75
2023-01-28T04:48:49.249Z,4.88
2023-01-28T04:51:33.193Z,5.43
2023-01-28T04:54:25.532Z,4.45
2023-01-28T04:56:57.685Z,5.50
2023-01-28T04:59:26.476Z,5.30
2023-01-28T05:01:55.211Z,5.32
2023-01-28T05:04:24.078Z,4.65
2023-01-28T05:06:53.816Z,5.38
2023-01-28T05:09:27.176Z,5.15
2023-01-28T05:11:55.814Z,5.07
2023-01-28T05:14:24.781Z,5.10
2023-01-28T05:17:01.101Z,5.45
2023-01-28T05:19:29.698Z,5.57
2023-01-28T05:21:59.084Z,5.35
2023-01-28T05:24:39.699Z,5.50
2023-01-28T05:27:08.420Z,5.22
2023-01-28T05:29:39.599Z,5.70
2023-01-28T05:32:08.221Z,5.53
2023-01-28T05:34:36.900Z,5.40
2023-01-28T05:37:11.354Z,4.90
2023-01-28T05:39:40.539Z,5.13
2023-01-28T05:42:09.525Z,5.55
2023-01-28T05:47:45.929Z,5.15
2023-01-28T05:50:37.653Z,5.38
2023-01-28T05:53:14.847Z,5.50
2023-01-28T05:55:49.988Z,4.20
2023-01-28T05:58:19.256Z,5.20
2023-01-28T06:00:48.203Z,4.95
2023-01-28T06:03:20.556Z,4.78
2023-01-28T06:05:49.949Z,5.15
2023-01-28T06:08:18.666Z,4.70
2023-01-28T06:10:48.047Z,4.50
2023-01-28T06:13:16.938Z,5.10
2023-01-28T06:18:56.300Z,4.72
2023-01-28T06:21:24.917Z,4.90
2023-01-28T06:23:53.654Z,4.80
2023-01-28T06:26:22.347Z,4.47
2023-01-28T06:28:51.181Z,4.40
2023-01-28T06:31:20.047Z,3.97
2023-01-28T06:33:48.696Z,4.13
2023-01-28T06:36:17.538Z,3.90
2023-01-28T06:38:46.043Z,3.72
2023-01-28T06:41:14.683Z,4.70
2023-01-28T06:43:43.376Z,4.38
2023-01-28T06:46:12.042Z,5.50
2023-01-28T06:48:40.602Z,5.28
2023-01-28T06:51:09.309Z,5.30
2023-01-28T06:53:37.797Z,5.45
2023-01-28T06:56:06.966Z,5.15
2023-01-28T06:58:36.217Z,5.40
2023-01-28T07:01:07.641Z,5.90
2023-01-28T07:03:37.739Z,5.47
2023-01-28T07:06:06.764Z,5.43
2023-01-28T07:08:35.634Z,5.40
2023-01-28T07:11:05.266Z,5.18
2023-01-28T07:13:34.115Z,4.55
2023-01-28T07:16:03.046Z,4.28
2023-01-28T07:18:31.894Z,4.10
2023-01-28T07:21:00.763Z,4.00
2023-01-28T07:23:29.305Z,4.82
2023-01-28T07:26:02.595Z,5.13
2023-01-28T07:28:31.314Z,4.55
2023-01-28T07:31:00.110Z,3.97
2023-01-28T07:33:28.973Z,4.07
2023-01-28T07:35:57.458Z,3.90
2023-01-28T07:38:26.137Z,4.07
2023-01-28T07:40:55.038Z,3.53
2023-01-28T07:43:23.901Z,3.50
2023-01-28T07:45:52.497Z,3.85
2023-01-28T07:48:21.104Z,4.00
2023-01-28T07:50:50.215Z,3.88
2023-01-28T07:53:19.259Z,3.55
2023-01-28T07:55:50.557Z,4.40
2023-01-28T07:58:19.090Z,3.78
2023-01-28T08:00:47.829Z,4.38
2023-01-28T08:03:17.083Z,5.15
2023-01-28T08:05:51.279Z,4.03
2023-01-28T08:08:20.457Z,4.75
2023-01-28T08:10:49.442Z,3.20
2023-01-28T08:13:19.982Z,4.50
2023-01-28T08:15:48.700Z,3.78
2023-01-28T08:18:18.372Z,3.75
2023-01-28T08:20:48.283Z,4.75
2023-01-28T08:23:23.113Z,4.65
2023-01-28T08:25:51.790Z,4.03
2023-01-28T08:28:22.381Z,4.57
2023-01-28T08:30:50.986Z,4.10
2023-01-28T08:33:20.577Z,4.32
2023-01-28T08:35:49.220Z,3.83
2023-01-28T08:38:18.674Z,4.38
2023-01-28T08:40:48.416Z,4.68
2023-01-28T08:43:17.438Z,4.55
2023-01-28T08:45:46.068Z,4.97
2023-01-28T08:48:18.657Z,4.63
2023-01-28T08:50:47.765Z,4.50
2023-01-28T08:53:21.088Z,3.30
2023-01-28T08:55:49.917Z,4.30
2023-01-28T08:58:19.576Z,3.85
2023-01-28T09:00:50.895Z,3.30
2023-01-28T09:03:19.716Z,3.33
2023-01-28T09:05:50.180Z,3.03
2023-01-28T09:08:18.880Z,3.58
2023-01-28T09:10:47.402Z,3.78
2023-01-28T09:13:17.177Z,3.97
2023-01-28T09:15:45.707Z,3.95
2023-01-28T09:18:14.501Z,4.45
2023-01-28T09:20:43.174Z,4.18
2023-01-28T09:23:12.559Z,4.10
2023-01-28T09:25:41.603Z,4.68
2023-01-28T09:28:10.314Z,4.07
2023-01-28T09:30:40.385Z,3.85
2023-01-28T09:33:09.317Z,3.83
2023-01-28T09:35:38.413Z,4.25
2023-01-28T09:38:06.959Z,4.18
2023-01-28T09:40:43.139Z,4.32
2023-01-28T09:43:28.316Z,4.75
2023-01-28T09:45:59.654Z,4.45
2023-01-28T09:48:39.417Z,4.43
2023-01-28T09:51:18.518Z,4.10
2023-01-28T09:53:51.438Z,3.42
2023-01-28T09:56:31.374Z,3.50
2023-01-28T09:59:13.649Z,3.50
2023-01-28T10:02:16.586Z,3.75
2023-01-28T10:05:17.045Z,3.10
2023-01-28T10:07:51.657Z,4.05
2023-01-28T10:10:41.497Z,4.28
2023-01-28T10:13:23.738Z,4.45
2023-01-28T10:16:09.429Z,4.47
2023-01-28T10:19:03.135Z,3.50
2023-01-28T10:21:43.831Z,4.05
2023-01-28T10:24:19.366Z,4.20
2023-01-28T10:26:48.496Z,4.57
2023-01-28T10:29:35.956Z,4.38
2023-01-28T10:32:17.419Z,4.13
2023-01-28T10:34:46.126Z,4.72
2023-01-28T10:37:16.857Z,4.00
2023-01-28T10:39:46.546Z,4.43
2023-01-28T10:42:33.768Z,5.10
2023-01-28T10:45:15.591Z,4.45
2023-01-28T10:48:00.910Z,4.93
2023-01-28T10:50:31.917Z,4.60
2023-01-28T10:53:06.303Z,4.15
2023-01-28T10:55:49.222Z,5.10
2023-01-28T10:58:27.998Z,5.30
2023-01-28T11:01:00.604Z,4.13
2023-01-28T11:03:33.341Z,5.47
2023-01-28T11:06:03.172Z,6.28
2023-01-28T11:08:32.748Z,5.38
2023-01-28T11:11:01.760Z,5.40
2023-01-28T11:13:32.200Z,5.25
2023-01-28T11:16:07.561Z,5.50
2023-01-28T11:18:53.212Z,5.68
2023-01-28T11:21:25.188Z,5.78
2023-01-28T11:23:59.929Z,6.32
2023-01-28T11:26:37.798Z,6.55
2023-01-28T11:29:07.647Z,5.68
2023-01-28T11:31:47.006Z,5.95
2023-01-28T11:34:18.648Z,5.32
2023-01-28T11:37:04.297Z,5.65
2023-01-28T11:39:33.302Z,5.65
2023-01-28T11:42:13.919Z,5.15
2023-01-28T11:44:42.906Z,5.60
2023-01-28T11:47:37.354Z,6.00
2023-01-28T11:50:26.614Z,5.65
2023-01-28T11:53:07.744Z,6.35
2023-01-28T11:56:04.936Z,6.70
2023-01-28T11:58:48.424Z,5.90
2023-01-28T12:01:48.696Z,5.30
2023-01-28T12:04:44.793Z,5.22
2023-01-28T12:07:38.574Z,5.15
2023-01-28T12:10:32.634Z,4.82
2023-01-28T12:13:28.165Z,5.03
2023-01-28T12:16:19.294Z,4.18
2023-01-28T12:19:08.092Z,4.47
2023-01-28T12:22:06.355Z,4.63
2023-01-28T12:24:43.231Z,5.05
2023-01-28T12:27:32.642Z,4.90
2023-01-28T12:30:21.149Z,5.07
2023-01-28T12:33:04.427Z,4.90
2023-01-28T12:35:44.110Z,4.80
2023-01-28T12:38:23.699Z,4.88
2023-01-28T12:41:03.809Z,4.47
2023-01-28T12:43:56.492Z,4.43
2023-01-28T12:46:42.907Z,4.40
2023-01-28T12:49:23.789Z,5.38
2023-01-28T12:52:24.248Z,4.32
2023-01-28T12:55:26.317Z,4.90
2023-01-28T12:58:00.531Z,4.28
2023-01-28T13:00:37.434Z,4.57
2023-01-28T13:03:36.279Z,4.35
2023-01-28T13:06:14.080Z,4.88
2023-01-28T13:08:42.650Z,5.43
2023-01-28T13:11:17.084Z,5.20
2023-01-28T13:16:17.902Z,4.22
2023-01-28T13:18:47.476Z,5.38
2023-01-28T13:21:25.307Z,4.43
2023-01-28T13:24:03.114Z,5.28
2023-01-28T13:26:39.015Z,5.07
2023-01-28T13:29:29.994Z,5.90
2023-01-28T13:32:01.328Z,4.78
2023-01-28T13:34:58.792Z,5.20
2023-01-28T13:37:40.411Z,5.32
2023-01-28T13:40:15.169Z,4.75
2023-01-28T13:42:43.855Z,4.65
2023-01-28T13:45:18.233Z,5.15
2023-01-28T13:47:54.849Z,4.30
2023-01-28T13:50:33.294Z,5.50
2023-01-28T13:53:40.670Z,3.72
2023-01-28T13:56:22.112Z,4.97
2023-01-28T13:59:09.200Z,5.65
2023-01-28T14:01:59.061Z,5.45
2023-01-28T14:04:27.727Z,5.35
2023-01-28T14:06:56.531Z,6.20
2023-01-28T14:09:39.792Z,6.07
2023-01-28T14:12:29.576Z,5.68
2023-01-28T14:15:35.865Z,5.80
2023-01-28T14:18:26.657Z,5.20
2023-01-28T14:20:57.915Z,4.78
2023-01-28T14:23:31.963Z,5.38
2023-01-28T14:26:00.571Z,6.05
2023-01-28T14:28:36.851Z,6.72
2023-01-28T14:31:31.727Z,9.20
2023-01-28T14:34:20.338Z,6.20
2023-01-28T14:36:50.365Z,6.03
2023-01-28T14:39:23.955Z,8.77
2023-01-28T14:41:55.280Z,6.10
2023-01-28T14:44:39.835Z,5.85
2023-01-28T14:47:44.020Z,5.40
2023-01-28T14:50:18.569Z,5.43
2023-01-28T14:55:55.413Z,9.85
2023-01-28T14:58:30.813Z,5.15
2023-01-28T15:01:01.421Z,6.55
2023-01-28T15:03:31.527Z,19.65
2023-01-28T15:06:18.291Z,5.63
2023-01-28T15:08:46.851Z,9.88
2023-01-28T15:11:21.159Z,6.43
2023-01-28T15:13:56.411Z,4.53
2023-01-28T15:16:32.209Z,3.83
2023-01-28T15:19:02.863Z,4.40
2023-01-28T15:21:35.703Z,4.78
2023-01-28T15:24:05.278Z,5.45
2023-01-28T15:26:35.629Z,4.53
2023-01-28T15:29:04.562Z,4.18
2023-01-28T15:31:36.226Z,5.00
2023-01-28T15:34:06.164Z,4.90
2023-01-28T15:36:34.952Z,5.43
2023-01-28T15:39:03.634Z,4.90
2023-01-28T15:41:37.609Z,5.25
2023-01-28T15:44:06.765Z,6.03
2023-01-28T15:46:35.162Z,4.28
2023-01-28T15:49:04.980Z,4.93
2023-01-28T15:51:37.310Z,3.88
2023-01-28T15:54:09.780Z,4.88
2023-01-28T15:56:38.742Z,4.97
2023-01-28T15:59:16.539Z,4.70
2023-01-28T16:01:45.381Z,4.63
2023-01-28T16:04:31.016Z,4.57
2023-01-28T16:07:05.010Z,4.50
2023-01-28T16:09:35.549Z,4.63
2023-01-28T16:12:08.416Z,4.60
2023-01-28T16:14:51.564Z,3.83
2023-01-28T16:17:32.598Z,4.68
2023-01-28T16:20:08.687Z,4.75
2023-01-28T16:22:42.637Z,3.60
2023-01-28T16:25:23.572Z,4.78
2023-01-28T16:27:51.968Z,5.43
2023-01-28T16:30:20.908Z,5.40
2023-01-28T16:32:49.744Z,5.38
2023-01-28T16:35:42.598Z,6.15
2023-01-28T16:38:17.954Z,7.25
2023-01-28T16:40:48.302Z,7.88
2023-01-28T16:43:18.474Z,5.30
2023-01-28T16:45:47.032Z,6.63
2023-01-28T16:48:18.102Z,6.72
2023-01-28T16:50:47.746Z,5.75
2023-01-28T16:53:28.579Z,7.82
2023-01-28T16:55:57.370Z,6.20
2023-01-28T16:58:27.621Z,6.45
2023-01-28T17:00:56.626Z,7.43
2023-01-28T17:03:25.385Z,6.85
2023-01-28T17:05:54.260Z,7.00
2023-01-28T17:08:23.044Z,6.25
2023-01-28T17:10:56.123Z,6.70
2023-01-28T17:13:25.014Z,6.30
2023-01-28T17:15:53.754Z,6.35
2023-01-28T17:18:22.499Z,6.32
2023-01-28T17:20:51.133Z,6.68
2023-01-28T17:23:23.595Z,5.15
2023-01-28T17:25:52.322Z,6.95
2023-01-28T17:28:20.691Z,8.63
2023-01-28T17:30:49.135Z,6.78
2023-01-28T17:33:17.642Z,7.90
2023-01-28T17:35:49.419Z,7.28
2023-01-28T17:38:18.237Z,7.72
2023-01-28T17:40:46.835Z,8.75
2023-01-28T17:43:15.502Z,6.80
2023-01-28T17:45:43.859Z,6.97
2023-01-28T17:48:12.538Z,6.35
2023-01-28T17:50:43.598Z,5.95
2023-01-28T17:53:12.449Z,8.10
2023-01-28T17:55:41.251Z,6.38
2023-01-28T17:58:09.964Z,6.50
2023-01-28T18:00:38.401Z,6.05
2023-01-28T18:03:06.977Z,5.80
2023-01-28T18:05:35.535Z,5.60
2023-01-28T18:08:03.917Z,5.40
2023-01-28T18:10:32.537Z,5.00
2023-01-28T18:13:02.592Z,4.75
2023-01-28T18:15:31.376Z,6.72
2023-01-28T18:17:59.882Z,6.15
2023-01-28T18:20:28.536Z,6.57
2023-01-28T18:22:57.136Z,5.35
2023-01-28T18:25:26.317Z,6.05
2023-01-28T18:27:55.339Z,10.57
2023-01-28T18:30:23.768Z,7.63
2023-01-28T18:32:52.493Z,8.50
2023-01-28T18:35:21.111Z,6.18
2023-01-28T18:37:50.017Z,4.93
2023-01-28T18:40:18.770Z,5.63
2023-01-28T18:42:47.420Z,5.53
2023-01-28T18:45:18.510Z,6.15
2023-01-28T18:47:47.587Z,6.32
2023-01-28T18:50:16.497Z,6.35
2023-01-28T18:52:45.157Z,5.38
2023-01-28T18:55:13.688Z,5.68
2023-01-28T18:57:42.271Z,6.05
2023-01-28T19:00:11.499Z,5.80
2023-01-28T19:02:40.101Z,5.28
2023-01-28T19:05:11.664Z,5.25
2023-01-28T19:07:40.243Z,5.43
2023-01-28T19:10:09.260Z,4.93
2023-01-28T19:12:37.896Z,5.93
2023-01-28T19:15:06.781Z,4.95
2023-01-28T19:17:35.601Z,4.88
2023-01-28T19:20:04.335Z,5.05
2023-01-28T19:22:33.820Z,5.57
2023-01-28T19:25:02.579Z,5.40
2023-01-28T19:27:31.138Z,5.72
2023-01-28T19:29:59.898Z,5.38
2023-01-28T19:32:28.542Z,5.43
2023-01-28T19:34:57.068Z,5.28
2023-01-28T19:37:28.020Z,5.07
2023-01-28T19:39:56.477Z,5.57
2023-01-28T19:42:25.122Z,4.57
2023-01-28T19:44:54.045Z,4.85
2023-01-28T19:47:22.919Z,5.18
2023-01-28T19:49:51.299Z,6.07
2023-01-28T19:52:19.799Z,5.35
2023-01-28T19:54:48.849Z,5.80
2023-01-28T19:57:17.417Z,6.72
2023-01-28T19:59:46.035Z,5.30
2023-01-28T20:02:14.548Z,6.00
2023-01-28T20:04:59.584Z,4.72
2023-01-28T20:07:29.287Z,4.88
2023-01-28T20:09:58.021Z,6.20
2023-01-28T20:12:26.823Z,5.88
2023-01-28T20:14:55.339Z,4.95
2023-01-28T20:17:24.049Z,4.80
2023-01-28T20:19:52.525Z,5.43
2023-01-28T20:22:21.123Z,5.30
2023-01-28T20:24:55.385Z,4.60
2023-01-28T20:27:25.419Z,5.80
2023-01-28T20:29:54.218Z,6.18
2023-01-28T20:32:23.980Z,5.25
2023-01-28T20:34:53.739Z,6.60
2023-01-28T20:37:22.426Z,6.68
2023-01-28T20:39:51.138Z,5.45
2023-01-28T20:42:19.751Z,5.55
2023-01-28T20:44:48.321Z,6.30
2023-01-28T20:47:16.878Z,5.90
2023-01-28T20:49:45.439Z,5.70
2023-01-28T20:52:13.938Z,5.60
2023-01-28T20:54:42.647Z,5.28
2023-01-28T20:57:11.077Z,5.95
2023-01-28T20:59:41.963Z,5.88
2023-01-28T21:02:11.786Z,6.18
2023-01-28T21:04:40.242Z,4.18
2023-01-28T21:07:10.118Z,5.97
2023-01-28T21:09:38.647Z,5.22
2023-01-28T21:12:07.734Z,5.43
2023-01-28T21:14:36.268Z,5.82
2023-01-28T21:17:04.903Z,5.85
2023-01-28T21:19:33.419Z,5.88
2023-01-28T21:22:01.687Z,6.07
2023-01-28T21:24:30.429Z,7.10
2023-01-28T21:26:58.982Z,5.38
2023-01-28T21:29:27.462Z,5.75
2023-01-28T21:31:56.199Z,5.50
2023-01-28T21:34:25.479Z,5.57
2023-01-28T21:36:54.355Z,6.03
2023-01-28T21:39:22.858Z,5.47
2023-01-28T21:41:51.660Z,5.70
2023-01-28T21:44:20.439Z,6.05
2023-01-28T21:46:49.258Z,6.47
2023-01-28T21:49:17.995Z,5.65
2023-01-28T21:51:46.947Z,5.78
2023-01-28T21:54:19.837Z,4.97
2023-01-28T21:56:50.627Z,5.90
2023-01-28T21:59:29.845Z,5.38
2023-01-28T22:02:06.839Z,5.80
2023-01-28T22:04:38.060Z,5.93
2023-01-28T22:07:09.100Z,5.78
2023-01-28T22:09:38.267Z,6.25
2023-01-28T22:12:08.716Z,6.82
2023-01-28T22:14:38.780Z,6.43
2023-01-28T22:17:09.640Z,6.75
2023-01-28T22:19:40.044Z,6.15
2023-01-28T22:22:08.834Z,6.93
2023-01-28T22:24:43.201Z,6.85
2023-01-28T22:27:11.961Z,7.20
2023-01-28T22:29:40.395Z,6.85
2023-01-28T22:32:09.020Z,6.50
2023-01-28T22:34:40.389Z,9.10
2023-01-28T22:37:09.015Z,6.82
2023-01-28T22:39:37.756Z,7.88
2023-01-28T22:42:06.596Z,7.13
2023-01-28T22:44:35.345Z,7.20
2023-01-28T22:47:04.125Z,6.60
2023-01-28T22:49:32.697Z,7.43
2023-01-28T22:52:01.416Z,7.57
2023-01-28T22:54:30.120Z,6.30
2023-01-28T22:56:58.826Z,7.57
2023-01-28T22:59:27.356Z,7.10
2023-01-28T23:01:55.921Z,7.60
2023-01-28T23:04:24.520Z,7.55
2023-01-28T23:06:53.333Z,7.20
2023-01-28T23:09:21.906Z,7.20
2023-01-28T23:11:50.553Z,8.55
2023-01-28T23:14:37.217Z,8.68
2023-01-28T23:17:41.069Z,8.18
2023-01-28T23:20:30.319Z,8.30
2023-01-28T23:23:17.034Z,8.95
2023-01-28T23:25:46.014Z,9.07
2023-01-28T23:28:14.625Z,8.02
2023-01-28T23:30:44.002Z,8.57
2023-01-28T23:33:12.722Z,9.20
2023-01-28T23:35:41.153Z,8.77
2023-01-28T23:38:09.696Z,8.93
2023-01-28T23:40:38.548Z,9.90
2023-01-28T23:43:06.951Z,9.30
2023-01-28T23:45:35.253Z,8.35
2023-01-28T23:48:04.993Z,12.88
2023-01-28T23:50:33.748Z,11.27
2023-01-28T23:53:02.356Z,9.55
2023-01-28T23:55:31.324Z,10.07
2023-01-28T23:57:59.710Z,10.10
